Time;durP1;ratioP1;P1;durP2;ratioP2;P2;SDS_P1;SDS_P2;PMS_P1;PMS_P2;Temp;Humidity;BMP_temperature;BMP_pressure;BME280_temperature;BME280_humidity;BME280_pressure;Samples;Min_cycle;Max_cycle;Signal;HPM_P1;HPM_P2
2021/10/23 00:01:33;;;;;;;7.70;1.70;;;6.80;99.90;;;;;;5095019;28;20036;-68
2021/10/23 00:03:58;;;;;;;10.32;1.83;;;6.70;99.90;;;;;;5095374;28;20040;-68
2021/10/23 00:06:24;;;;;;;11.48;1.92;;;6.70;99.90;;;;;;5095207;28;20044;-67
2021/10/23 00:08:49;;;;;;;8.82;1.70;;;6.70;99.90;;;;;;5094954;28;20036;-68
2021/10/23 00:11:15;;;;;;;9.70;2.42;;;6.70;99.90;;;;;;5094962;28;20067;-68
2021/10/23 00:13:41;;;;;;;6.28;2.33;;;6.70;99.90;;;;;;5094426;28;20062;-68
2021/10/23 00:16:07;;;;;;;12.45;2.28;;;6.80;99.90;;;;;;5093739;28;20048;-68
2021/10/23 00:18:32;;;;;;;5.03;1.40;;;6.70;99.90;;;;;;5093223;28;20047;-67
2021/10/23 00:20:58;;;;;;;8.13;2.13;;;6.80;99.90;;;;;;5095357;28;20380;-68
2021/10/23 00:23:24;;;;;;;9.38;2.10;;;6.80;99.90;;;;;;5094689;28;20048;-68
2021/10/23 00:25:49;;;;;;;5.93;1.67;;;6.90;99.90;;;;;;5093545;28;20036;-68
2021/10/23 00:28:15;;;;;;;13.70;3.25;;;6.90;99.90;;;;;;5094854;28;20043;-68
2021/10/23 00:30:40;;;;;;;7.05;1.50;;;6.90;99.90;;;;;;5093545;28;20051;-68
2021/10/23 00:33:06;;;;;;;10.48;2.53;;;6.90;99.90;;;;;;5094412;28;20488;-68
2021/10/23 00:35:32;;;;;;;9.48;1.80;;;7.00;99.90;;;;;;5094000;28;20040;-68
2021/10/23 00:37:58;;;;;;;9.18;2.33;;;6.90;99.90;;;;;;5094290;28;20042;-68
2021/10/23 00:40:24;;;;;;;9.63;1.38;;;7.00;99.90;;;;;;5092769;28;20040;-68
2021/10/23 00:42:49;;;;;;;9.32;2.45;;;6.90;99.90;;;;;;5093314;28;20088;-68
2021/10/23 00:45:15;;;;;;;9.95;1.60;;;6.90;99.90;;;;;;5094618;28;20037;-68
2021/10/23 00:47:40;;;;;;;6.35;1.73;;;6.90;99.90;;;;;;5094492;28;20400;-68
2021/10/23 00:50:06;;;;;;;10.63;1.80;;;6.90;99.90;;;;;;5094076;28;20383;-68
2021/10/23 00:52:32;;;;;;;7.90;1.88;;;6.90;99.90;;;;;;5094126;28;20044;-68
2021/10/23 00:54:58;;;;;;;9.07;1.40;;;6.90;99.90;;;;;;5094321;28;20036;-68
2021/10/23 00:57:24;;;;;;;11.23;1.70;;;7.00;99.90;;;;;;5094492;28;20036;-68
2021/10/23 00:59:50;;;;;;;5.43;1.60;;;7.00;99.90;;;;;;5094229;28;20488;-67
2021/10/23 01:02:15;;;;;;;7.68;1.70;;;7.00;99.90;;;;;;5093922;28;20040;-68
2021/10/23 01:04:41;;;;;;;8.30;1.52;;;7.00;99.90;;;;;;5093510;28;20477;-68
2021/10/23 01:07:08;;;;;;;10.52;2.30;;;7.00;99.90;;;;;;5093159;28;20039;-68
2021/10/23 01:09:36;;;;;;;12.68;1.65;;;7.00;99.90;;;;;;5093753;28;20036;-68
2021/10/23 01:12:06;;;;;;;9.88;2.22;;;7.00;99.90;;;;;;5093949;28;20036;-68
2021/10/23 01:14:31;;;;;;;11.20;2.10;;;7.10;99.90;;;;;;5076093;28;20074;-68
2021/10/23 01:16:57;;;;;;;16.98;1.85;;;7.00;99.90;;;;;;5093949;28;20067;-68
2021/10/23 01:19:23;;;;;;;11.93;1.77;;;7.00;99.90;;;;;;5093506;28;20395;-68
2021/10/23 01:21:50;;;;;;;10.75;1.88;;;7.00;99.90;;;;;;5093549;28;20314;-68
2021/10/23 01:24:17;;;;;;;6.85;1.60;;;7.00;99.90;;;;;;5093855;28;20047;-68
2021/10/23 01:26:43;;;;;;;13.10;2.00;;;7.00;99.90;;;;;;5093840;28;20159;-68
2021/10/23 01:29:12;;;;;;;12.07;2.65;;;7.00;99.90;;;;;;5093508;28;20073;-68
2021/10/23 01:31:39;;;;;;;10.93;1.70;;;7.00;99.90;;;;;;5093649;28;20040;-68
2021/10/23 01:34:20;;;;;;;9.45;1.30;;;6.90;99.90;;;;;;5093731;28;20043;-68
2021/10/23 01:36:54;;;;;;;12.40;1.58;;;7.00;99.90;;;;;;5093874;28;20084;-68
2021/10/23 01:39:21;;;;;;;11.32;1.55;;;6.90;99.90;;;;;;5093256;28;20028;-68
2021/10/23 01:41:47;;;;;;;8.68;1.33;;;6.90;99.90;;;;;;5093404;28;20396;-68
2021/10/23 01:44:14;;;;;;;8.05;1.55;;;6.90;99.90;;;;;;5094097;28;20036;-68
2021/10/23 01:46:40;;;;;;;6.82;2.28;;;6.90;99.90;;;;;;5093937;28;20044;-68
2021/10/23 01:49:06;;;;;;;6.45;1.42;;;6.90;99.90;;;;;;5093214;28;20036;-68
2021/10/23 01:51:33;;;;;;;10.43;1.85;;;6.90;99.90;;;;;;5092171;28;20032;-68
2021/10/23 01:54:07;;;;;;;6.88;1.15;;;6.90;99.90;;;;;;5093537;28;20063;-68
2021/10/23 01:56:36;;;;;;;7.82;1.30;;;6.90;99.90;;;;;;5093312;28;20055;-68
2021/10/23 01:59:02;;;;;;;11.35;1.50;;;6.90;99.90;;;;;;5092986;28;20048;-68
2021/10/23 02:01:28;;;;;;;7.57;1.23;;;6.90;99.90;;;;;;5097313;28;20032;-68
2021/10/23 02:03:53;;;;;;;8.52;1.92;;;6.90;99.90;;;;;;5097668;28;20097;-68
2021/10/23 02:06:19;;;;;;;10.15;2.80;;;6.90;99.90;;;;;;5079681;28;20068;-68
2021/10/23 02:08:45;;;;;;;9.63;1.67;;;6.90;99.90;;;;;;5097291;28;20164;-68
2021/10/23 02:11:11;;;;;;;10.13;1.75;;;6.90;99.90;;;;;;5096151;28;20071;-68
2021/10/23 02:13:36;;;;;;;8.23;1.80;;;6.80;99.90;;;;;;5097356;28;20076;-68
2021/10/23 02:16:02;;;;;;;7.43;1.45;;;6.90;99.90;;;;;;5096083;28;20571;-68
2021/10/23 02:18:28;;;;;;;12.52;2.95;;;6.90;99.90;;;;;;5096928;28;20376;-66
2021/10/23 02:20:55;;;;;;;10.50;1.70;;;7.00;99.90;;;;;;5097313;28;20044;-68
2021/10/23 02:23:21;;;;;;;12.45;1.77;;;7.00;99.90;;;;;;5097298;28;20068;-68
2021/10/23 02:25:47;;;;;;;10.88;2.17;;;7.10;99.90;;;;;;5096693;28;20523;-68
2021/10/23 02:28:12;;;;;;;6.95;1.75;;;7.10;99.90;;;;;;5096994;28;20362;-67
2021/10/23 02:30:38;;;;;;;10.50;2.05;;;7.10;99.90;;;;;;5097554;28;20043;-68
2021/10/23 02:33:04;;;;;;;11.48;1.60;;;7.10;99.90;;;;;;5096696;28;20399;-68
2021/10/23 02:35:29;;;;;;;10.63;1.70;;;7.10;99.90;;;;;;5097053;28;20039;-68
2021/10/23 02:37:56;;;;;;;9.23;1.60;;;7.10;99.90;;;;;;5096760;28;20476;-68
2021/10/23 02:40:22;;;;;;;8.15;1.67;;;7.10;99.90;;;;;;5096392;28;20063;-68
2021/10/23 02:42:48;;;;;;;13.15;1.58;;;7.10;99.90;;;;;;5095766;28;20043;-68
2021/10/23 02:45:13;;;;;;;8.65;1.75;;;7.10;99.90;;;;;;5095658;28;20044;-68
2021/10/23 02:47:39;;;;;;;7.20;1.38;;;7.00;99.90;;;;;;5095999;28;20032;-68
2021/10/23 02:50:05;;;;;;;5.55;1.38;;;7.00;99.90;;;;;;5096723;28;20049;-68
2021/10/23 02:52:31;;;;;;;7.40;2.00;;;7.00;99.90;;;;;;5096479;28;20058;-68
2021/10/23 02:54:57;;;;;;;11.90;1.65;;;7.00;99.90;;;;;;5097042;28;20164;-68
2021/10/23 02:57:23;;;;;;;11.20;1.80;;;7.00;99.90;;;;;;5096997;28;20386;-68
2021/10/23 02:59:48;;;;;;;9.73;1.45;;;6.90;99.90;;;;;;5094795;28;20040;-68
2021/10/23 03:02:14;;;;;;;6.78;1.77;;;6.90;99.90;;;;;;5096438;28;20114;-68
2021/10/23 03:04:41;;;;;;;10.15;2.22;;;6.90;99.90;;;;;;5096569;28;20046;-68
2021/10/23 03:07:06;;;;;;;10.00;1.90;;;6.90;99.90;;;;;;5095013;28;20048;-68
2021/10/23 03:09:32;;;;;;;4.97;1.02;;;6.90;99.90;;;;;;5094714;28;20093;-68
2021/10/23 03:11:57;;;;;;;7.10;1.52;;;6.90;99.90;;;;;;5096081;28;20089;-68
2021/10/23 03:14:23;;;;;;;11.00;2.45;;;7.00;99.90;;;;;;5096192;28;20046;-68
2021/10/23 03:16:48;;;;;;;4.38;2.05;;;6.90;99.90;;;;;;5094891;28;20472;-68
2021/10/23 03:19:14;;;;;;;7.15;1.30;;;7.00;99.90;;;;;;5095827;28;20032;-68
2021/10/23 03:21:40;;;;;;;5.95;2.00;;;7.00;99.90;;;;;;5096148;28;20090;-68
2021/10/23 03:24:06;;;;;;;9.93;1.63;;;7.10;99.90;;;;;;5096473;28;20064;-68
2021/10/23 03:26:31;;;;;;;9.60;1.55;;;7.10;99.90;;;;;;5094805;28;20480;-68
2021/10/23 03:28:57;;;;;;;6.90;1.67;;;7.10;99.90;;;;;;5094334;28;20478;-68
2021/10/23 03:31:23;;;;;;;9.13;2.60;;;7.10;99.90;;;;;;5095659;28;20048;-68
2021/10/23 03:33:48;;;;;;;11.55;1.45;;;7.10;99.90;;;;;;5096138;28;20483;-68
2021/10/23 03:36:15;;;;;;;14.63;3.03;;;7.10;99.90;;;;;;5095389;28;20484;-68
2021/10/23 03:38:41;;;;;;;11.82;2.03;;;7.10;99.90;;;;;;5095266;28;20046;-68
2021/10/23 03:41:07;;;;;;;6.63;1.40;;;7.10;99.90;;;;;;5095409;28;20466;-68
2021/10/23 03:43:33;;;;;;;14.98;1.77;;;7.10;99.90;;;;;;5095820;28;20036;-68
2021/10/23 03:45:59;;;;;;;5.53;1.20;;;7.10;99.90;;;;;;5095723;28;20115;-68
2021/10/23 03:48:24;;;;;;;10.05;1.27;;;7.10;99.90;;;;;;5094704;28;20036;-69
2021/10/23 03:50:50;;;;;;;12.75;1.80;;;7.10;99.90;;;;;;5095641;28;20082;-68
2021/10/23 03:53:16;;;;;;;9.25;1.33;;;7.10;99.90;;;;;;5096106;28;20047;-68
2021/10/23 03:55:41;;;;;;;7.22;2.17;;;7.20;99.90;;;;;;5095768;28;20043;-68
2021/10/23 03:58:10;;;;;;;15.18;2.00;;;7.20;99.90;;;;;;5095171;28;20046;-68
2021/10/23 04:00:36;;;;;;;7.80;1.60;;;7.20;99.90;;;;;;5095210;28;20055;-68
2021/10/23 04:03:01;;;;;;;8.70;1.35;;;7.20;99.90;;;;;;5095723;28;20114;-68
2021/10/23 04:05:27;;;;;;;5.20;1.30;;;7.20;99.90;;;;;;5095152;28;20068;-68
2021/10/23 04:07:52;;;;;;;10.07;1.52;;;7.20;99.90;;;;;;5095049;28;20028;-68
2021/10/23 04:10:18;;;;;;;8.25;1.55;;;7.30;99.90;;;;;;5094645;28;20455;-68
2021/10/23 04:12:44;;;;;;;7.50;1.45;;;7.20;99.90;;;;;;5095181;28;20484;-68
2021/10/23 04:15:09;;;;;;;11.07;2.78;;;7.20;99.90;;;;;;5093574;28;20044;-68
2021/10/23 04:17:35;;;;;;;15.48;1.90;;;7.20;99.90;;;;;;5094916;28;20089;-68
2021/10/23 04:20:01;;;;;;;12.55;2.05;;;7.20;99.90;;;;;;5094444;28;20378;-68
2021/10/23 04:22:27;;;;;;;10.10;1.52;;;7.20;99.90;;;;;;5076324;28;20108;-68
2021/10/23 04:24:52;;;;;;;8.43;1.55;;;7.20;99.90;;;;;;5094923;28;20484;-67
2021/10/23 04:27:19;;;;;;;7.45;1.17;;;7.20;99.90;;;;;;5094652;28;20042;-68
2021/10/23 04:29:45;;;;;;;8.00;1.30;;;7.20;99.90;;;;;;5094465;28;20090;-68
2021/10/23 04:32:10;;;;;;;8.57;1.42;;;7.20;99.90;;;;;;5094672;28;20032;-68
2021/10/23 04:34:36;;;;;;;4.93;1.25;;;7.20;99.90;;;;;;5095346;28;20036;-68
2021/10/23 04:37:03;;;;;;;8.10;2.17;;;7.20;99.90;;;;;;5093291;28;20067;-67
2021/10/23 04:39:29;;;;;;;7.32;1.40;;;7.20;99.90;;;;;;5093805;28;20032;-68
2021/10/23 04:41:55;;;;;;;6.72;1.30;;;7.20;99.90;;;;;;5094357;28;20040;-68
2021/10/23 04:44:21;;;;;;;5.40;1.35;;;7.10;99.90;;;;;;5094570;28;20043;-68
2021/10/23 04:46:46;;;;;;;4.22;0.98;;;7.10;99.90;;;;;;5094426;28;20032;-68
2021/10/23 04:49:12;;;;;;;6.70;1.33;;;7.20;99.90;;;;;;5094016;28;20040;-68
2021/10/23 04:51:38;;;;;;;7.28;1.30;;;7.20;99.90;;;;;;5094143;28;20124;-68
2021/10/23 04:54:04;;;;;;;10.35;1.60;;;7.20;99.90;;;;;;5094565;28;20079;-68
2021/10/23 04:56:29;;;;;;;9.02;1.50;;;7.20;99.90;;;;;;5094237;28;20048;-68
2021/10/23 04:58:55;;;;;;;8.95;1.30;;;7.30;99.90;;;;;;5094089;28;20043;-68
2021/10/23 05:01:21;;;;;;;6.93;1.60;;;7.30;99.90;;;;;;5094061;28;20039;-67
2021/10/23 05:03:46;;;;;;;8.93;1.85;;;7.30;99.90;;;;;;5093028;28;20094;-68
2021/10/23 05:06:12;;;;;;;5.80;1.63;;;7.40;99.90;;;;;;5094055;28;20096;-68
2021/10/23 05:08:38;;;;;;;13.73;1.77;;;7.40;99.90;;;;;;5093714;28;20395;-67
2021/10/23 05:11:03;;;;;;;8.43;1.67;;;7.40;99.90;;;;;;5094072;28;20047;-68
2021/10/23 05:13:29;;;;;;;8.20;1.65;;;7.40;99.90;;;;;;5094409;28;20454;-68
2021/10/23 05:15:55;;;;;;;7.45;1.25;;;7.40;99.90;;;;;;5094013;28;20043;-68
2021/10/23 05:18:20;;;;;;;5.60;0.95;;;7.40;99.90;;;;;;5092399;28;20043;-68
2021/10/23 05:20:46;;;;;;;6.70;1.35;;;7.40;99.90;;;;;;5093318;28;20407;-68
2021/10/23 05:23:12;;;;;;;5.05;1.20;;;7.40;99.90;;;;;;5093509;28;20531;-68
2021/10/23 05:25:37;;;;;;;7.43;1.40;;;7.50;99.90;;;;;;5093678;28;20085;-67
2021/10/23 05:28:03;;;;;;;9.68;1.77;;;7.50;99.90;;;;;;5093858;28;20060;-68
2021/10/23 05:30:29;;;;;;;6.40;1.67;;;7.40;99.90;;;;;;5093501;28;20520;-68
2021/10/23 05:32:54;;;;;;;8.20;2.13;;;7.40;99.90;;;;;;5094088;28;20024;-68
2021/10/23 05:35:20;;;;;;;10.65;2.22;;;7.40;99.90;;;;;;5091937;28;20468;-68
2021/10/23 05:37:45;;;;;;;7.45;1.50;;;7.40;99.90;;;;;;5092172;28;20048;-68
2021/10/23 05:40:12;;;;;;;7.47;1.65;;;7.40;99.90;;;;;;5092050;28;20036;-67
2021/10/23 05:42:38;;;;;;;10.40;1.92;;;7.40;99.90;;;;;;5093378;28;20040;-68
2021/10/23 05:45:04;;;;;;;9.48;1.98;;;7.40;99.90;;;;;;5093513;28;20036;-68
2021/10/23 05:47:30;;;;;;;6.00;1.52;;;7.50;99.90;;;;;;5093423;28;20446;-68
2021/10/23 05:49:55;;;;;;;6.88;1.70;;;7.50;99.90;;;;;;5093162;28;20392;-68
2021/10/23 05:52:21;;;;;;;8.65;1.67;;;7.50;99.90;;;;;;5093678;28;20044;-68
2021/10/23 05:54:46;;;;;;;12.38;2.08;;;7.50;99.90;;;;;;5093623;28;20119;-67
2021/10/23 05:57:12;;;;;;;8.93;1.85;;;7.50;99.90;;;;;;5093509;28;20040;-68
2021/10/23 05:59:41;;;;;;;7.78;1.80;;;7.50;99.90;;;;;;5093320;28;20046;-68
2021/10/23 06:02:21;;;;;;;8.10;1.90;;;7.50;99.90;;;;;;5093334;28;20040;-68
2021/10/23 06:04:48;;;;;;;10.57;1.83;;;7.50;99.90;;;;;;5093422;28;20052;-68
2021/10/23 06:07:14;;;;;;;9.80;1.55;;;7.50;99.90;;;;;;5093417;28;20047;-67
2021/10/23 06:09:40;;;;;;;11.55;2.75;;;7.50;99.90;;;;;;5092806;28;20040;-68
2021/10/23 06:12:05;;;;;;;6.78;1.73;;;7.50;99.90;;;;;;5093067;28;20400;-68
2021/10/23 06:14:31;;;;;;;6.78;1.85;;;7.60;99.90;;;;;;5093269;28;20039;-68
2021/10/23 06:16:57;;;;;;;10.65;2.20;;;7.50;99.90;;;;;;5092991;28;20040;-68
2021/10/23 06:19:22;;;;;;;9.63;1.90;;;7.50;99.90;;;;;;5092717;28;20396;-67
2021/10/23 06:21:48;;;;;;;7.88;1.60;;;7.50;99.90;;;;;;5092925;28;20040;-68
2021/10/23 06:24:13;;;;;;;4.57;1.38;;;7.50;99.90;;;;;;5093172;28;20180;-68
2021/10/23 06:26:39;;;;;;;9.60;1.70;;;7.50;99.90;;;;;;5091709;28;20545;-68
2021/10/23 06:29:05;;;;;;;13.40;2.10;;;7.50;99.90;;;;;;5092692;28;20035;-68
2021/10/23 06:31:30;;;;;;;8.82;4.88;;;7.50;99.90;;;;;;5092791;28;20503;-67
2021/10/23 06:33:56;;;;;;;9.85;2.60;;;7.40;99.90;;;;;;5093124;28;20089;-68
2021/10/23 06:36:21;;;;;;;8.43;2.17;;;7.40;99.90;;;;;;5092804;28;20488;-68
2021/10/23 06:38:47;;;;;;;10.60;1.85;;;7.40;99.90;;;;;;5092469;28;20085;-68
2021/10/23 06:41:12;;;;;;;8.98;2.10;;;7.40;99.90;;;;;;5093163;28;20036;-68
2021/10/23 06:43:38;;;;;;;4.63;1.67;;;7.40;99.90;;;;;;5091711;28;20036;-68
2021/10/23 06:46:03;;;;;;;8.90;1.60;;;7.40;99.90;;;;;;5094513;28;20069;-68
2021/10/23 06:48:29;;;;;;;9.95;2.63;;;7.40;99.90;;;;;;5096456;28;20051;-68
2021/10/23 06:50:55;;;;;;;10.15;1.83;;;7.50;99.90;;;;;;5096478;28;20072;-68
2021/10/23 06:53:20;;;;;;;8.48;2.00;;;7.50;99.90;;;;;;5096647;28;20043;-68
2021/10/23 06:55:46;;;;;;;7.32;1.70;;;7.60;99.90;;;;;;5096370;28;20039;-68
2021/10/23 06:58:11;;;;;;;6.78;1.92;;;7.60;99.90;;;;;;5096528;28;20036;-68
2021/10/23 07:00:37;;;;;;;13.48;2.28;;;7.70;99.90;;;;;;5096101;28;20101;-68
2021/10/23 07:03:02;;;;;;;9.40;1.60;;;7.80;99.90;;;;;;5096807;28;20121;-68
2021/10/23 07:05:30;;;;;;;10.68;2.10;;;7.80;99.90;;;;;;5097070;28;20036;-68
2021/10/23 07:07:56;;;;;;;11.77;1.67;;;8.00;99.90;;;;;;5095192;28;20040;-70
2021/10/23 07:10:21;;;;;;;6.85;1.80;;;8.00;99.90;;;;;;5096239;28;20032;-68
2021/10/23 07:12:47;;;;;;;9.43;1.67;;;8.10;99.90;;;;;;5096299;28;20044;-68
2021/10/23 07:15:13;;;;;;;4.80;1.70;;;8.20;99.90;;;;;;5096696;28;20036;-68
2021/10/23 07:17:39;;;;;;;9.60;1.80;;;8.30;99.90;;;;;;5095866;28;20373;-68
2021/10/23 07:20:05;;;;;;;7.50;2.55;;;8.40;99.90;;;;;;5095679;28;20039;-68
2021/10/23 07:22:31;;;;;;;8.27;1.60;;;8.50;99.90;;;;;;5095902;28;20032;-68
2021/10/23 07:24:56;;;;;;;8.30;2.42;;;8.50;99.90;;;;;;5096012;28;20032;-68
2021/10/23 07:27:22;;;;;;;6.47;1.50;;;8.50;99.90;;;;;;5095903;28;20488;-68
2021/10/23 07:29:48;;;;;;;7.40;1.88;;;8.60;99.90;;;;;;5095451;28;20036;-68
2021/10/23 07:32:13;;;;;;;11.02;2.05;;;8.60;99.90;;;;;;5096188;28;20481;-68
2021/10/23 07:34:39;;;;;;;8.43;1.67;;;8.60;99.90;;;;;;5094665;28;20040;-67
2021/10/23 07:37:04;;;;;;;7.28;2.47;;;8.60;99.90;;;;;;5095658;28;20160;-68
2021/10/23 07:39:30;;;;;;;11.20;2.60;;;8.60;99.90;;;;;;5095645;28;20063;-68
2021/10/23 07:41:56;;;;;;;11.38;2.05;;;8.60;99.90;;;;;;5095493;28;20548;-68
2021/10/23 07:44:21;;;;;;;13.60;2.00;;;8.60;99.90;;;;;;5095537;28;20040;-68
2021/10/23 07:46:47;;;;;;;11.50;2.42;;;8.60;99.90;;;;;;5095405;28;20036;-68
2021/10/23 07:49:13;;;;;;;8.55;2.00;;;8.60;99.90;;;;;;5093734;28;20048;-68
2021/10/23 07:51:39;;;;;;;9.68;2.05;;;8.60;99.90;;;;;;5095223;28;20039;-68
2021/10/23 07:54:06;;;;;;;8.05;1.88;;;8.50;99.90;;;;;;5095362;28;20072;-68
2021/10/23 07:56:35;;;;;;;12.90;1.98;;;8.60;99.90;;;;;;5095398;28;20377;-68
2021/10/23 07:59:01;;;;;;;14.63;2.28;;;8.60;99.90;;;;;;5093213;28;20044;-68
2021/10/23 08:01:27;;;;;;;8.85;2.67;;;8.60;99.90;;;;;;5095811;28;20119;-68
2021/10/23 08:03:53;;;;;;;10.50;2.00;;;8.70;99.90;;;;;;5094241;28;20140;-68
2021/10/23 08:06:19;;;;;;;14.45;2.45;;;8.70;99.90;;;;;;5095444;28;20047;-67
2021/10/23 08:08:48;;;;;;;10.23;2.13;;;8.80;99.90;;;;;;5095056;28;20046;-68
2021/10/23 08:11:14;;;;;;;14.65;3.22;;;8.90;99.90;;;;;;5095563;28;20036;-68
2021/10/23 08:13:39;;;;;;;11.43;1.92;;;9.10;99.90;;;;;;5095117;28;20511;-68
2021/10/23 08:16:05;;;;;;;15.68;2.63;;;9.20;99.90;;;;;;5094319;28;20051;-68
2021/10/23 08:18:31;;;;;;;9.52;2.38;;;9.20;99.90;;;;;;5094515;28;20040;-67
2021/10/23 08:20:57;;;;;;;8.85;2.08;;;9.40;99.90;;;;;;5095129;28;20040;-68
2021/10/23 08:23:23;;;;;;;9.52;2.10;;;9.60;99.90;;;;;;5095143;28;20032;-67
2021/10/23 08:25:51;;;;;;;7.95;2.15;;;9.80;99.90;;;;;;5095222;28;20054;-68
2021/10/23 08:28:18;;;;;;;11.50;1.98;;;10.00;99.90;;;;;;5093870;28;20169;-68
2021/10/23 08:30:43;;;;;;;7.65;1.92;;;10.20;99.90;;;;;;5094952;28;20040;-68
2021/10/23 08:33:09;;;;;;;9.88;2.08;;;10.20;99.90;;;;;;5094665;28;20039;-67
2021/10/23 08:35:35;;;;;;;12.68;2.88;;;10.10;99.90;;;;;;5094710;28;20192;-69
2021/10/23 08:38:02;;;;;;;10.40;3.17;;;10.20;99.90;;;;;;5094750;28;20059;-71
2021/10/23 08:40:27;;;;;;;9.52;1.95;;;10.10;99.90;;;;;;5094123;28;20055;-72
2021/10/23 08:42:54;;;;;;;9.02;2.20;;;10.10;99.90;;;;;;5094362;28;20052;-72
2021/10/23 08:45:20;;;;;;;8.90;1.98;;;10.10;99.90;;;;;;5093440;28;20419;-72
2021/10/23 08:47:47;;;;;;;9.75;1.90;;;10.00;99.90;;;;;;5093101;28;20043;-72
2021/10/23 08:50:16;;;;;;;8.88;1.75;;;10.10;99.90;;;;;;5092892;28;20044;-72
2021/10/23 08:52:53;;;;;;;11.63;2.55;;;10.10;99.90;;;;;;5094475;28;20040;-72
2021/10/23 08:55:19;;;;;;;9.90;2.22;;;10.20;99.90;;;;;;5094420;28;20071;-72
2021/10/23 08:57:45;;;;;;;10.02;2.20;;;10.20;99.90;;;;;;5094293;28;20582;-72
2021/10/23 09:00:12;;;;;;;7.88;2.03;;;10.30;99.90;;;;;;5093677;28;20546;-72
2021/10/23 09:02:37;;;;;;;10.60;3.00;;;10.30;99.90;;;;;;5094320;28;20036;-72
2021/10/23 09:05:04;;;;;;;12.27;2.80;;;10.40;99.90;;;;;;5094133;28;20027;-72
2021/10/23 09:07:31;;;;;;;13.57;2.80;;;10.40;99.90;;;;;;5093144;28;20043;-72
2021/10/23 09:10:04;;;;;;;7.07;2.38;;;10.50;99.90;;;;;;5093780;28;20039;-72
2021/10/23 09:12:32;;;;;;;8.15;2.15;;;10.50;99.90;;;;;;5094215;28;20350;-72
2021/10/23 09:14:59;;;;;;;9.32;1.98;;;10.50;99.90;;;;;;5093780;28;20044;-72
2021/10/23 09:17:26;;;;;;;9.63;2.25;;;10.50;99.90;;;;;;5092485;28;20040;-72
2021/10/23 09:19:52;;;;;;;10.75;1.90;;;10.50;99.90;;;;;;5093509;28;20032;-72
2021/10/23 09:22:22;;;;;;;10.60;3.28;;;10.50;99.90;;;;;;5093638;28;20044;-72
2021/10/23 09:24:48;;;;;;;10.15;2.55;;;10.60;99.90;;;;;;5092591;28;20054;-72
2021/10/23 09:27:17;;;;;;;8.48;2.45;;;10.60;99.90;;;;;;5093681;28;20039;-72
2021/10/23 09:29:43;;;;;;;13.20;2.30;;;10.70;99.90;;;;;;5092344;28;20051;-72
2021/10/23 09:32:11;;;;;;;5.82;1.75;;;10.70;99.90;;;;;;5093705;28;20036;-71
2021/10/23 09:34:37;;;;;;;12.48;3.03;;;10.80;99.90;;;;;;5094141;28;20048;-72
2021/10/23 09:37:04;;;;;;;9.20;1.85;;;10.80;99.90;;;;;;5093839;28;20153;-72
2021/10/23 09:39:31;;;;;;;11.98;2.30;;;10.90;99.90;;;;;;5093570;28;20108;-72
2021/10/23 09:42:09;;;;;;;7.97;1.92;;;10.90;99.90;;;;;;5093382;28;20093;-72
2021/10/23 09:44:51;;;;;;;8.30;2.45;;;10.90;99.90;;;;;;5093813;28;20063;-72
2021/10/23 09:47:17;;;;;;;9.85;2.67;;;10.90;99.90;;;;;;5092605;28;20078;-72
2021/10/23 09:49:43;;;;;;;9.35;1.98;;;10.90;99.90;;;;;;5092002;28;20040;-72
2021/10/23 09:52:09;;;;;;;9.95;2.38;;;11.00;99.90;;;;;;5093667;28;20055;-72
2021/10/23 09:54:37;;;;;;;12.68;2.47;;;11.10;99.90;;;;;;5093559;28;20120;-72
2021/10/23 09:57:10;;;;;;;8.20;1.88;;;11.00;99.90;;;;;;5093458;28;20032;-72
2021/10/23 09:59:38;;;;;;;;;;;11.10;99.90;;;;;;5093596;28;20036;-72
2021/10/23 10:02:06;;;;;;;10.20;2.15;;;11.00;99.90;;;;;;5091920;28;19978;-72
2021/10/23 10:04:32;;;;;;;8.48;2.88;;;11.00;99.90;;;;;;5093459;28;20043;-72
2021/10/23 10:07:00;;;;;;;12.23;1.67;;;11.00;99.90;;;;;;5093542;28;20439;-72
2021/10/23 10:09:26;;;;;;;9.27;2.47;;;11.00;99.90;;;;;;5093078;28;20043;-72
2021/10/23 10:11:54;;;;;;;11.27;1.85;;;11.00;99.90;;;;;;5093507;28;20044;-72
2021/10/23 10:14:24;;;;;;;11.68;2.10;;;11.10;99.90;;;;;;5093423;28;20032;-72
2021/10/23 10:16:57;;;;;;;7.38;1.65;;;11.10;99.90;;;;;;5091842;28;20067;-72
2021/10/23 10:19:22;;;;;;;13.23;1.85;;;11.10;99.90;;;;;;5091701;28;20056;-72
2021/10/23 10:21:50;;;;;;;9.07;1.80;;;11.10;99.90;;;;;;5095709;28;20051;-72
2021/10/23 10:24:28;;;;;;;5.13;1.23;;;11.10;99.90;;;;;;5097118;28;20040;-72
2021/10/23 10:27:07;;;;;;;7.32;1.73;;;11.20;99.90;;;;;;5097704;28;20047;-72
2021/10/23 10:29:52;;;;;;;10.32;1.70;;;11.30;99.90;;;;;;5095844;28;20067;-72
2021/10/23 10:32:33;;;;;;;9.02;2.00;;;11.30;99.90;;;;;;5079045;28;20094;-72
2021/10/23 10:35:21;;;;;;;5.00;1.38;;;11.30;99.90;;;;;;5078889;28;20040;-72
2021/10/23 10:37:53;;;;;;;5.93;1.50;;;11.30;99.90;;;;;;5095600;28;20119;-71
2021/10/23 10:40:42;;;;;;;10.18;1.60;;;11.30;99.90;;;;;;5095249;28;20055;-72
2021/10/23 10:43:15;;;;;;;9.02;1.63;;;11.30;99.90;;;;;;5096819;28;20089;-72
2021/10/23 10:45:46;;;;;;;7.50;1.92;;;11.30;99.90;;;;;;5095446;28;20488;-72
2021/10/23 10:48:25;;;;;;;8.48;2.03;;;11.40;99.90;;;;;;5095431;28;20048;-72
2021/10/23 10:50:55;;;;;;;8.75;3.58;;;11.40;99.90;;;;;;5095127;28;20055;-72
2021/10/23 10:53:39;;;;;;;7.85;1.60;;;11.40;99.90;;;;;;5096549;28;20089;-72
2021/10/23 10:56:07;;;;;;;10.80;1.58;;;11.40;99.90;;;;;;5096858;28;20076;-72
2021/10/23 10:58:49;;;;;;;10.15;1.80;;;11.50;99.90;;;;;;5096870;28;20464;-72
2021/10/23 11:01:24;;;;;;;9.48;1.30;;;11.50;99.90;;;;;;5096551;28;20449;-72
2021/10/23 11:03:53;;;;;;;11.82;2.15;;;11.60;99.90;;;;;;5096902;28;20036;-72
2021/10/23 11:09:08;;;;;;;5.90;1.85;;;11.70;99.90;;;;;;5095336;28;20044;-72
2021/10/23 11:11:52;;;;;;;16.27;1.95;;;11.70;99.90;;;;;;5096161;28;20048;-72
2021/10/23 11:16:55;;;;;;;5.78;1.13;;;11.80;99.90;;;;;;5094766;28;19916;-72
2021/10/23 11:19:26;;;;;;;6.38;1.50;;;11.90;99.90;;;;;;5096031;28;20043;-72
2021/10/23 11:21:56;;;;;;;5.40;2.45;;;12.00;99.90;;;;;;5096148;28;20101;-72
2021/10/23 11:24:22;;;;;;;8.90;1.35;;;12.00;99.90;;;;;;5096145;28;20036;-72
2021/10/23 11:26:49;;;;;;;8.00;1.52;;;12.10;99.90;;;;;;5094603;28;20039;-72
2021/10/23 11:29:33;;;;;;;6.57;1.52;;;12.10;99.90;;;;;;5095751;28;20032;-72
2021/10/23 11:32:00;;;;;;;9.20;1.20;;;12.10;99.90;;;;;;5094739;28;20081;-72
2021/10/23 11:34:33;;;;;;;5.20;1.30;;;12.20;99.90;;;;;;5095609;28;20047;-72
2021/10/23 11:37:10;;;;;;;4.65;1.08;;;12.20;99.90;;;;;;5095736;28;20488;-72
2021/10/23 11:39:40;;;;;;;5.28;1.35;;;12.20;99.90;;;;;;5094238;28;20114;-72
2021/10/23 11:42:20;;;;;;;10.10;1.95;;;12.20;99.90;;;;;;5096266;28;20036;-72
2021/10/23 11:44:46;;;;;;;8.07;1.30;;;12.10;99.90;;;;;;5096254;28;20094;-72
2021/10/23 11:47:28;;;;;;;9.25;2.03;;;12.10;99.90;;;;;;5095782;28;20492;-72
2021/10/23 11:50:03;;;;;;;6.28;1.83;;;12.00;99.90;;;;;;5094184;28;20040;-72
2021/10/23 11:52:34;;;;;;;5.40;1.50;;;12.10;99.90;;;;;;5095952;28;20438;-72
2021/10/23 11:55:04;;;;;;;6.90;2.15;;;12.10;99.90;;;;;;5095512;28;20032;-72
2021/10/23 11:57:32;;;;;;;7.15;1.25;;;12.10;99.90;;;;;;5094537;28;20044;-72
2021/10/23 11:59:58;;;;;;;5.30;1.48;;;12.00;99.90;;;;;;5095046;28;20171;-72
2021/10/23 12:02:38;;;;;;;6.68;1.70;;;12.00;99.90;;;;;;5094084;28;20057;-72
2021/10/23 12:05:38;;;;;;;6.75;1.42;;;11.90;99.90;;;;;;5095568;28;20036;-72
2021/10/23 12:08:18;;;;;;;6.00;1.88;;;11.90;99.90;;;;;;5095329;28;20412;-72
2021/10/23 12:11:08;;;;;;;8.23;1.48;;;11.90;99.90;;;;;;5093968;28;20048;-72
2021/10/23 12:14:06;;;;;;;6.85;1.35;;;11.90;99.90;;;;;;5093819;28;20051;-72
2021/10/23 12:16:35;;;;;;;4.35;1.35;;;11.90;99.90;;;;;;5095040;28;20051;-72
2021/10/23 12:19:03;;;;;;;9.18;1.63;;;12.00;99.90;;;;;;5094584;28;20051;-72
2021/10/23 12:21:42;;;;;;;6.32;1.35;;;12.00;99.90;;;;;;5094788;28;20047;-72
2021/10/23 12:24:14;;;;;;;4.28;1.25;;;12.00;99.90;;;;;;5094852;28;20043;-72
2021/10/23 12:26:39;;;;;;;7.38;1.27;;;12.00;99.90;;;;;;5095217;28;20051;-72
2021/10/23 12:29:07;;;;;;;6.72;1.33;;;12.10;99.90;;;;;;5093198;28;20044;-72
2021/10/23 12:31:58;;;;;;;5.07;1.20;;;12.10;99.90;;;;;;5095065;28;20077;-72
2021/10/23 12:34:48;;;;;;;5.53;1.67;;;12.10;99.90;;;;;;5094636;28;20488;-72
2021/10/23 12:37:15;;;;;;;8.52;2.13;;;12.20;99.90;;;;;;5093378;28;20059;-72
2021/10/23 12:39:41;;;;;;;9.85;1.65;;;12.20;99.90;;;;;;5094260;28;20519;-72
2021/10/23 12:42:06;;;;;;;14.35;3.22;;;12.10;99.90;;;;;;5094357;28;20040;-72
2021/10/23 12:44:32;;;;;;;8.80;2.22;;;12.00;99.90;;;;;;5094076;28;20119;-72
2021/10/23 12:46:58;;;;;;;12.40;3.30;;;12.00;99.90;;;;;;5093124;28;20042;-72
2021/10/23 12:49:23;;;;;;;7.50;2.00;;;12.00;99.90;;;;;;5094337;28;20044;-72
2021/10/23 12:51:50;;;;;;;14.82;2.45;;;12.10;99.90;;;;;;5094246;28;20044;-72
2021/10/23 12:54:16;;;;;;;6.93;1.50;;;12.00;99.90;;;;;;5094611;28;20042;-72
2021/10/23 12:56:45;;;;;;;8.90;1.90;;;12.00;99.90;;;;;;5095066;28;20028;-72
2021/10/23 12:59:12;;;;;;;8.80;2.58;;;12.00;99.90;;;;;;5092734;28;20115;-72